Terminal Aerodrome Forecast
Issued by NWS

Home | Current Version | Previous Version | Text Only | Print | Product List | Glossary On
Versions: 1 2 3 4 5 6 7 8 9 10 11 12
000
FTUS42 TJSJ 311137
TAFJBQ
TAF
TJBQ 311137Z 3112/0112 11010KT P6SM FEW025 SCT040
     FM311330 08015G25KT P6SM SCT030 BKN050
     FM312330 11010KT P6SM FEW025 FEW040=

USA.gov is the U.S. government's official web portal to all federal, state and local government web resources and services.